Time;durP1;ratioP1;P1;durP2;ratioP2;P2;SDS_P1;SDS_P2;PMS_P1;PMS_P2;Temp;Humidity;BMP_temperature;BMP_pressure;BME280_temperature;BME280_humidity;BME280_pressure;Samples;Min_cycle;Max_cycle;Signal;HPM_P1;HPM_P2
2022/01/14 00:04:52;;;;;;;53.70;21.10;;;;;;;;;;10449485;28;20268;-62
2022/01/14 00:09:54;;;;;;;53.97;21.77;;;;;;;;;;10434593;28;20210;-64
2022/01/14 00:15:12;;;;;;;54.65;22.08;;;;;;;;;;10451617;28;20213;-64
2022/01/14 00:20:13;;;;;;;56.28;22.58;;;;;;;;;;10455212;28;20198;-64
2022/01/14 00:35:53;;;;;;;57.50;22.52;;;;;;;;;;10456476;28;20627;-64
2022/01/14 00:40:54;;;;;;;61.92;23.58;;;;;;;;;;10458692;28;20252;-63
2022/01/14 00:45:55;;;;;;;54.67;22.50;;;;;;;;;;10459637;28;20209;-64
2022/01/14 00:50:56;;;;;;;58.08;22.55;;;;;;;;;;10460264;28;20716;-63
2022/01/14 00:56:20;;;;;;;61.97;23.73;;;;;;;;;;10459381;28;20347;-64
2022/01/14 01:01:21;;;;;;;59.00;24.02;;;;;;;;;;10457676;28;20202;-64
2022/01/14 01:06:22;;;;;;;54.85;22.67;;;;;;;;;;10455064;28;20198;-64
2022/01/14 01:11:31;;;;;;;52.00;24.15;;;;;;;;;;10457475;28;20194;-64
2022/01/14 01:16:32;;;;;;;61.88;24.73;;;;;;;;;;10455291;28;20690;-62
2022/01/14 01:21:34;;;;;;;53.65;23.00;;;;;;;;;;10459240;28;20203;-64
2022/01/14 01:26:38;;;;;;;54.03;22.67;;;;;;;;;;10458039;28;20204;-64
2022/01/14 01:31:41;;;;;;;56.33;23.88;;;;;;;;;;10456432;28;20206;-63
2022/01/14 01:36:46;;;;;;;61.53;24.85;;;;;;;;;;10445465;28;20290;-64
2022/01/14 01:41:49;;;;;;;60.30;26.20;;;;;;;;;;10455603;28;20635;-64
2022/01/14 01:46:51;;;;;;;58.72;24.38;;;;;;;;;;10446786;28;20329;-64
2022/01/14 01:51:52;;;;;;;61.17;25.35;;;;;;;;;;10454692;28;20193;-64
2022/01/14 01:56:54;;;;;;;53.72;24.45;;;;;;;;;;10452029;28;20210;-64
2022/01/14 02:01:58;;;;;;;61.72;24.60;;;;;;;;;;10436950;28;20217;-64
2022/01/14 02:06:59;;;;;;;57.80;24.98;;;;;;;;;;10439892;28;20201;-64
2022/01/14 02:12:07;;;;;;;58.42;24.65;;;;;;;;;;10455324;28;20198;-65
2022/01/14 02:22:14;;;;;;;56.33;23.25;;;;;;;;;;10454653;28;20190;-64
2022/01/14 02:27:15;;;;;;;59.08;23.98;;;;;;;;;;10452655;28;20202;-63
2022/01/14 02:32:16;;;;;;;60.38;24.60;;;;;;;;;;10451667;28;20214;-63
2022/01/14 02:37:20;;;;;;;61.38;23.30;;;;;;;;;;10453035;28;20210;-63
2022/01/14 02:42:21;;;;;;;53.75;23.52;;;;;;;;;;10443958;28;20194;-63
2022/01/14 02:47:22;;;;;;;63.35;24.05;;;;;;;;;;10446344;28;20313;-64
2022/01/14 02:52:30;;;;;;;58.80;23.05;;;;;;;;;;10450389;28;20929;-64
2022/01/14 02:57:31;;;;;;;59.20;22.48;;;;;;;;;;10455417;28;20218;-64
2022/01/14 03:02:34;;;;;;;53.67;22.95;;;;;;;;;;10452792;28;20805;-64
2022/01/14 03:07:36;;;;;;;59.50;24.25;;;;;;;;;;10452555;28;20207;-63
2022/01/14 03:12:37;;;;;;;55.78;21.58;;;;;;;;;;10453394;28;20207;-64
2022/01/14 03:17:39;;;;;;;55.60;23.58;;;;;;;;;;10449795;28;20294;-64
2022/01/14 03:22:52;;;;;;;54.28;22.50;;;;;;;;;;10436214;28;20198;-64
2022/01/14 03:27:54;;;;;;;55.75;22.67;;;;;;;;;;10439787;28;20267;-63
2022/01/14 03:32:55;;;;;;;52.88;23.42;;;;;;;;;;10450123;28;20309;-64
2022/01/14 03:37:58;;;;;;;54.03;21.70;;;;;;;;;;10446874;28;20211;-64
2022/01/14 03:42:59;;;;;;;56.65;23.05;;;;;;;;;;10447253;28;20189;-64
2022/01/14 03:48:00;;;;;;;59.80;23.70;;;;;;;;;;10432512;28;20660;-65
2022/01/14 03:53:02;;;;;;;52.80;23.40;;;;;;;;;;10452923;28;20204;-64
2022/01/14 03:58:03;;;;;;;53.45;22.38;;;;;;;;;;10442098;28;20217;-63
2022/01/14 04:03:05;;;;;;;50.85;22.08;;;;;;;;;;10443934;28;20215;-64
2022/01/14 04:08:06;;;;;;;50.00;22.48;;;;;;;;;;10444713;28;20321;-63
2022/01/14 04:13:15;;;;;;;49.78;20.85;;;;;;;;;;10457418;28;20194;-63
2022/01/14 04:18:18;;;;;;;56.67;21.98;;;;;;;;;;10459207;28;20298;-64
2022/01/14 04:23:24;;;;;;;55.10;23.58;;;;;;;;;;10459351;28;20222;-64
2022/01/14 04:28:27;;;;;;;57.45;23.73;;;;;;;;;;10458453;28;20274;-64
2022/01/14 04:33:29;;;;;;;59.08;24.63;;;;;;;;;;10457338;28;20249;-64
2022/01/14 04:38:31;;;;;;;74.05;24.13;;;;;;;;;;10454283;28;20206;-64
2022/01/14 04:43:32;;;;;;;56.60;24.45;;;;;;;;;;10459422;28;20513;-63
2022/01/14 04:48:34;;;;;;;55.80;23.38;;;;;;;;;;10454660;28;20923;-64
2022/01/14 04:53:35;;;;;;;54.33;22.23;;;;;;;;;;10445521;28;20268;-64
2022/01/14 04:58:36;;;;;;;48.40;21.05;;;;;;;;;;10449874;28;20210;-63
2022/01/14 05:03:37;;;;;;;62.75;23.38;;;;;;;;;;10455760;28;20210;-63
2022/01/14 05:08:39;;;;;;;64.97;23.85;;;;;;;;;;10456522;28;20195;-64
2022/01/14 05:13:40;;;;;;;56.55;22.67;;;;;;;;;;10441946;28;20196;-65
2022/01/14 05:18:42;;;;;;;57.33;23.58;;;;;;;;;;10452060;28;20213;-64
2022/01/14 05:23:43;;;;;;;52.67;20.70;;;;;;;;;;10450156;28;20240;-64
2022/01/14 05:28:44;;;;;;;58.67;23.88;;;;;;;;;;10456831;28;20264;-65
2022/01/14 05:33:47;;;;;;;49.33;21.88;;;;;;;;;;10452203;28;20283;-65
2022/01/14 05:38:48;;;;;;;54.28;24.73;;;;;;;;;;10432679;28;20227;-65
2022/01/14 05:43:49;;;;;;;55.90;22.83;;;;;;;;;;10445690;28;20190;-66
2022/01/14 05:48:50;;;;;;;54.20;23.65;;;;;;;;;;10406919;28;1046685;-65
2022/01/14 05:53:51;;;;;;;53.25;22.63;;;;;;;;;;10440256;28;20199;-66
2022/01/14 05:58:52;;;;;;;51.38;23.15;;;;;;;;;;10445039;28;20333;-66
2022/01/14 06:03:53;;;;;;;55.45;22.30;;;;;;;;;;10436785;28;20214;-64
2022/01/14 06:08:54;;;;;;;51.13;23.27;;;;;;;;;;10438066;28;20194;-64
2022/01/14 06:13:55;;;;;;;50.78;22.25;;;;;;;;;;10413044;28;20197;-64
2022/01/14 06:18:56;;;;;;;55.40;22.80;;;;;;;;;;10436026;28;20211;-65
2022/01/14 06:23:57;;;;;;;55.83;21.77;;;;;;;;;;10453018;28;20190;-65
2022/01/14 06:28:58;;;;;;;46.00;22.75;;;;;;;;;;10452531;28;20209;-65
2022/01/14 06:33:59;;;;;;;52.17;23.52;;;;;;;;;;10449966;28;21112;-65
2022/01/14 06:39:00;;;;;;;47.67;21.42;;;;;;;;;;10435261;28;20214;-64
2022/01/14 06:44:01;;;;;;;54.25;22.35;;;;;;;;;;10453071;28;20209;-65
2022/01/14 06:49:02;;;;;;;49.00;21.48;;;;;;;;;;10444843;28;20206;-65
2022/01/14 06:54:03;;;;;;;44.50;21.38;;;;;;;;;;10447530;28;20199;-65
2022/01/14 06:59:05;;;;;;;48.20;22.25;;;;;;;;;;10446512;28;20247;-65
2022/01/14 07:04:06;;;;;;;51.67;21.10;;;;;;;;;;10448037;28;20242;-64
2022/01/14 07:09:07;;;;;;;39.90;21.02;;;;;;;;;;10449591;28;20194;-64
2022/01/14 07:14:08;;;;;;;48.70;22.92;;;;;;;;;;10432298;28;20679;-64
2022/01/14 07:19:09;;;;;;;43.47;20.20;;;;;;;;;;10450704;28;20367;-64
2022/01/14 07:24:12;;;;;;;48.00;21.05;;;;;;;;;;10421325;28;20203;-64
2022/01/14 07:29:14;;;;;;;45.60;20.40;;;;;;;;;;10437722;28;20202;-65
2022/01/14 07:34:15;;;;;;;42.92;21.40;;;;;;;;;;10447830;28;20971;-65
2022/01/14 07:39:19;;;;;;;40.55;19.23;;;;;;;;;;10447551;28;20210;-65
2022/01/14 07:44:20;;;;;;;47.65;20.70;;;;;;;;;;10450003;28;20203;-65
2022/01/14 07:49:21;;;;;;;40.10;18.70;;;;;;;;;;10425285;28;20230;-64
2022/01/14 07:54:22;;;;;;;47.85;20.08;;;;;;;;;;10404896;28;20198;-64
2022/01/14 07:59:24;;;;;;;40.13;19.27;;;;;;;;;;10403154;28;20218;-64
2022/01/14 08:04:26;;;;;;;41.45;19.20;;;;;;;;;;10404135;28;20953;-65
2022/01/14 08:09:27;;;;;;;42.85;19.63;;;;;;;;;;10406308;28;20582;-65
2022/01/14 08:14:28;;;;;;;44.10;19.65;;;;;;;;;;10405479;28;20197;-64
2022/01/14 08:19:36;;;;;;;44.53;20.63;;;;;;;;;;10404574;28;20699;-64
2022/01/14 08:24:37;;;;;;;41.17;18.38;;;;;;;;;;10410558;28;20225;-64
2022/01/14 08:29:38;;;;;;;37.88;18.75;;;;;;;;;;10407620;28;20226;-64
2022/01/14 08:34:40;;;;;;;41.42;19.98;;;;;;;;;;10404479;28;20245;-64
2022/01/14 08:39:41;;;;;;;42.42;20.48;;;;;;;;;;10407857;28;20693;-65
2022/01/14 08:44:44;;;;;;;41.60;19.02;;;;;;;;;;10424974;28;20191;-65
2022/01/14 08:49:45;;;;;;;44.42;18.92;;;;;;;;;;10413340;28;20226;-65
2022/01/14 08:54:46;;;;;;;45.30;19.42;;;;;;;;;;10396686;28;20269;-65
2022/01/14 08:59:47;;;;;;;44.90;19.38;;;;;;;;;;10414230;28;20276;-64
2022/01/14 09:04:48;;;;;;;41.17;18.48;;;;;;;;;;10413010;28;20550;-64
2022/01/14 09:09:51;;;;;;;40.33;18.80;;;;;;;;;;10409429;28;20567;-65
2022/01/14 09:14:52;;;;;;;41.50;19.38;;;;;;;;;;10411972;28;20250;-65
2022/01/14 09:19:53;;;;;;;37.95;18.20;;;;;;;;;;10411088;28;20203;-65
2022/01/14 09:24:57;;;;;;;39.38;16.35;;;;;;;;;;10412176;28;20683;-65
2022/01/14 09:29:59;;;;;;;54.42;19.38;;;;;;;;;;10411310;28;20857;-64
2022/01/14 09:35:03;;;;;;;41.65;18.60;;;;;;;;;;10409304;28;20794;-64
2022/01/14 09:40:04;;;;;;;31.52;17.58;;;;;;;;;;10407347;28;20867;-64
2022/01/14 09:45:06;;;;;;;36.72;16.95;;;;;;;;;;10409072;28;20195;-65
2022/01/14 09:50:07;;;;;;;35.85;17.50;;;;;;;;;;10405274;28;20309;-65
2022/01/14 09:55:08;;;;;;;36.33;17.15;;;;;;;;;;10409011;28;20753;-64
2022/01/14 10:00:09;;;;;;;38.60;16.75;;;;;;;;;;10409718;28;20199;-64
2022/01/14 10:05:30;;;;;;;32.72;16.38;;;;;;;;;;10411646;28;20741;-64
2022/01/14 10:10:36;;;;;;;36.65;18.02;;;;;;;;;;10409377;28;20229;-65
2022/01/14 10:15:44;;;;;;;36.30;17.90;;;;;;;;;;10406083;28;20203;-64
2022/01/14 10:20:46;;;;;;;34.03;16.33;;;;;;;;;;10408785;28;20199;-64
2022/01/14 10:25:56;;;;;;;37.20;15.90;;;;;;;;;;10406149;28;20653;-64
2022/01/14 10:30:57;;;;;;;34.55;17.48;;;;;;;;;;10404431;28;20878;-64
2022/01/14 10:35:59;;;;;;;31.63;16.70;;;;;;;;;;10409657;28;20211;-64
2022/01/14 10:41:00;;;;;;;33.88;16.05;;;;;;;;;;10409264;28;20179;-64
2022/01/14 10:46:04;;;;;;;29.90;15.18;;;;;;;;;;10408303;28;20214;-64
2022/01/14 10:51:10;;;;;;;25.13;14.00;;;;;;;;;;10369354;28;20222;-64
2022/01/14 10:56:18;;;;;;;30.13;16.30;;;;;;;;;;10364012;28;20216;-64
2022/01/14 11:01:21;;;;;;;29.42;15.20;;;;;;;;;;10364822;28;20219;-64
2022/01/14 11:06:22;;;;;;;28.80;15.38;;;;;;;;;;10370422;28;20211;-64
2022/01/14 11:11:24;;;;;;;31.02;15.27;;;;;;;;;;10366914;28;20211;-64
2022/01/14 11:16:25;;;;;;;32.92;15.90;;;;;;;;;;10368822;28;20216;-64
2022/01/14 11:26:48;;;;;;;33.50;17.30;;;;;;;;;;10367915;28;20225;-65
2022/01/14 11:31:59;;;;;;;29.50;13.80;;;;;;;;;;10366392;28;20216;-64
2022/01/14 11:37:04;;;;;;;32.75;16.83;;;;;;;;;;10352590;28;20212;-64
2022/01/14 11:42:08;;;;;;;32.13;16.63;;;;;;;;;;10363282;28;20286;-64
2022/01/14 11:47:25;;;;;;;29.60;15.30;;;;;;;;;;10370031;28;20917;-64
2022/01/14 11:52:53;;;;;;;32.63;17.00;;;;;;;;;;10405040;28;20205;-65
2022/01/14 11:58:00;;;;;;;30.02;14.75;;;;;;;;;;10403143;28;20223;-65
2022/01/14 12:03:11;;;;;;;28.17;14.35;;;;;;;;;;10407149;28;20216;-64
2022/01/14 12:08:14;;;;;;;30.95;14.38;;;;;;;;;;10402646;28;21069;-64
2022/01/14 12:13:22;;;;;;;28.92;13.30;;;;;;;;;;10403104;28;20187;-64
2022/01/14 12:18:46;;;;;;;27.33;14.57;;;;;;;;;;10404876;28;20217;-64
2022/01/14 12:23:47;;;;;;;25.48;13.23;;;;;;;;;;10414969;28;20237;-65
2022/01/14 12:29:08;;;;;;;36.15;15.75;;;;;;;;;;10415042;28;20187;-63
2022/01/14 12:34:09;;;;;;;27.50;15.65;;;;;;;;;;10415188;28;20229;-63
2022/01/14 12:39:10;;;;;;;27.83;14.73;;;;;;;;;;10415314;28;20257;-64
2022/01/14 12:44:11;;;;;;;28.08;15.27;;;;;;;;;;10413257;28;20245;-66
2022/01/14 12:49:16;;;;;;;26.88;14.52;;;;;;;;;;10411923;28;20238;-65
2022/01/14 12:54:18;;;;;;;26.95;14.40;;;;;;;;;;10413953;28;20278;-65
2022/01/14 12:59:19;;;;;;;31.05;15.32;;;;;;;;;;10397508;28;20295;-64
2022/01/14 13:04:21;;;;;;;33.22;16.45;;;;;;;;;;10412512;28;20211;-65
2022/01/14 13:09:22;;;;;;;27.63;15.18;;;;;;;;;;10412783;28;20195;-65
2022/01/14 13:14:29;;;;;;;29.30;15.25;;;;;;;;;;10412876;28;20192;-65
2022/01/14 13:19:30;;;;;;;33.38;16.67;;;;;;;;;;10410510;28;20215;-65
2022/01/14 13:24:32;;;;;;;34.20;16.92;;;;;;;;;;10411460;28;20217;-63
2022/01/14 13:29:38;;;;;;;33.65;17.55;;;;;;;;;;10408711;28;20191;-65
2022/01/14 13:34:43;;;;;;;32.30;17.17;;;;;;;;;;10413243;28;20215;-65
2022/01/14 13:39:44;;;;;;;28.75;17.20;;;;;;;;;;10403293;28;20235;-64
2022/01/14 13:44:46;;;;;;;35.55;16.92;;;;;;;;;;10410749;28;21236;-64
2022/01/14 13:49:48;;;;;;;44.95;18.90;;;;;;;;;;10405161;28;20244;-65
2022/01/14 13:54:54;;;;;;;41.83;18.73;;;;;;;;;;10409759;28;20692;-64
2022/01/14 14:00:05;;;;;;;42.95;18.17;;;;;;;;;;10406500;28;20238;-65
2022/01/14 14:05:06;;;;;;;45.03;19.33;;;;;;;;;;10407483;28;20211;-64
2022/01/14 14:10:20;;;;;;;41.60;18.73;;;;;;;;;;10409171;28;20227;-65
2022/01/14 14:15:44;;;;;;;42.20;19.60;;;;;;;;;;10411338;28;20195;-64
2022/01/14 14:20:45;;;;;;;40.85;20.02;;;;;;;;;;10410873;28;20211;-64
2022/01/14 14:25:47;;;;;;;43.90;19.48;;;;;;;;;;10406576;28;20229;-64
2022/01/14 14:30:50;;;;;;;50.75;21.25;;;;;;;;;;10409237;28;20211;-64
2022/01/14 14:35:56;;;;;;;51.00;20.38;;;;;;;;;;10406115;28;20211;-65
2022/01/14 14:40:59;;;;;;;51.20;22.25;;;;;;;;;;10390227;28;20226;-64
2022/01/14 14:46:00;;;;;;;50.10;20.00;;;;;;;;;;10409192;28;20218;-64
2022/01/14 14:51:01;;;;;;;51.20;22.30;;;;;;;;;;10404812;28;20572;-65
2022/01/14 14:56:02;;;;;;;45.88;21.08;;;;;;;;;;10405235;28;20224;-66
2022/01/14 15:01:07;;;;;;;48.33;22.67;;;;;;;;;;10405350;28;20223;-65
2022/01/14 15:06:11;;;;;;;55.88;23.02;;;;;;;;;;10405508;28;20227;-65
2022/01/14 15:11:12;;;;;;;60.33;23.02;;;;;;;;;;10406194;28;20199;-65
2022/01/14 15:21:17;;;;;;;44.10;22.10;;;;;;;;;;10404270;28;20195;-65
2022/01/14 15:26:21;;;;;;;48.83;23.38;;;;;;;;;;10403753;28;20199;-65
2022/01/14 15:31:23;;;;;;;49.97;22.08;;;;;;;;;;10405573;28;20256;-65
2022/01/14 15:36:24;;;;;;;52.85;22.38;;;;;;;;;;10392611;28;20215;-64
2022/01/14 15:41:28;;;;;;;46.83;22.42;;;;;;;;;;10408683;28;20632;-65
2022/01/14 15:46:29;;;;;;;42.33;22.10;;;;;;;;;;10408101;28;20195;-65
2022/01/14 15:51:30;;;;;;;51.30;20.70;;;;;;;;;;10412077;28;20242;-65
2022/01/14 15:56:31;;;;;;;44.92;20.63;;;;;;;;;;10415872;28;20206;-65
2022/01/14 16:01:32;;;;;;;52.45;21.95;;;;;;;;;;10413077;28;20221;-65
2022/01/14 16:06:33;;;;;;;46.33;21.05;;;;;;;;;;10417199;28;20199;-65
2022/01/14 16:11:35;;;;;;;42.38;20.38;;;;;;;;;;10418699;28;20706;-65
2022/01/14 16:16:36;;;;;;;45.85;20.77;;;;;;;;;;10413246;28;20211;-65
2022/01/14 16:21:37;;;;;;;37.50;18.33;;;;;;;;;;10411960;28;20199;-65
2022/01/14 16:26:38;;;;;;;39.83;18.75;;;;;;;;;;10411802;28;20272;-66
2022/01/14 16:31:39;;;;;;;38.65;19.08;;;;;;;;;;10414847;28;20215;-64
2022/01/14 16:36:40;;;;;;;42.33;20.63;;;;;;;;;;10395406;28;20215;-65
2022/01/14 16:41:43;;;;;;;41.47;21.20;;;;;;;;;;10417091;28;20673;-65
2022/01/14 16:46:44;;;;;;;47.80;20.90;;;;;;;;;;10413008;28;20199;-65
2022/01/14 16:51:45;;;;;;;55.47;25.98;;;;;;;;;;10414114;28;20261;-65
2022/01/14 16:56:46;;;;;;;50.38;23.10;;;;;;;;;;10413317;28;20233;-65
2022/01/14 17:01:48;;;;;;;48.72;22.58;;;;;;;;;;10410328;28;20575;-65
2022/01/14 17:06:49;;;;;;;47.45;23.45;;;;;;;;;;10410626;28;20195;-66
2022/01/14 17:11:50;;;;;;;52.67;25.33;;;;;;;;;;10417535;28;20201;-65
2022/01/14 17:16:51;;;;;;;48.67;23.50;;;;;;;;;;10413780;28;20773;-65
2022/01/14 17:21:52;;;;;;;48.33;21.63;;;;;;;;;;10408532;28;20697;-65
2022/01/14 17:26:53;;;;;;;45.50;21.40;;;;;;;;;;10402495;28;20685;-65
2022/01/14 17:31:54;;;;;;;51.03;22.52;;;;;;;;;;10407153;28;20918;-65
2022/01/14 17:36:56;;;;;;;42.72;20.67;;;;;;;;;;10409862;28;20226;-65
2022/01/14 17:41:58;;;;;;;39.40;20.52;;;;;;;;;;10410830;28;20363;-65
2022/01/14 17:47:00;;;;;;;41.35;20.48;;;;;;;;;;10407567;28;20286;-65
2022/01/14 17:52:01;;;;;;;44.42;20.48;;;;;;;;;;10404294;28;20236;-64
2022/01/14 17:57:04;;;;;;;45.00;22.75;;;;;;;;;;10408844;28;20207;-64
2022/01/14 18:02:05;;;;;;;36.78;19.33;;;;;;;;;;10406740;28;21026;-66
2022/01/14 18:07:06;;;;;;;30.30;17.13;;;;;;;;;;10401464;28;20586;-66
2022/01/14 18:12:18;;;;;;;40.05;18.30;;;;;;;;;;10410022;28;20210;-65
2022/01/14 18:17:19;;;;;;;27.88;15.32;;;;;;;;;;10417199;28;20214;-65
2022/01/14 18:22:20;;;;;;;29.92;16.45;;;;;;;;;;10390487;28;20190;-65
2022/01/14 18:27:21;;;;;;;28.38;16.13;;;;;;;;;;10406589;28;20198;-65
2022/01/14 18:32:22;;;;;;;23.42;13.73;;;;;;;;;;10410839;28;20224;-64
2022/01/14 18:37:23;;;;;;;24.30;14.77;;;;;;;;;;10410608;28;20646;-65
2022/01/14 18:42:25;;;;;;;26.52;15.13;;;;;;;;;;10409503;28;20198;-64
2022/01/14 18:47:26;;;;;;;28.38;14.57;;;;;;;;;;10410956;28;20234;-64
2022/01/14 18:52:27;;;;;;;25.33;15.05;;;;;;;;;;10408089;28;20225;-65
2022/01/14 18:57:28;;;;;;;24.05;15.27;;;;;;;;;;10407696;28;20211;-65
2022/01/14 19:02:29;;;;;;;24.10;14.27;;;;;;;;;;10410348;28;20222;-65
2022/01/14 19:07:30;;;;;;;22.42;14.93;;;;;;;;;;10404879;28;20666;-65
2022/01/14 19:12:31;;;;;;;23.90;15.00;;;;;;;;;;10409862;28;20286;-65
2022/01/14 19:17:32;;;;;;;22.35;14.43;;;;;;;;;;10396989;28;20214;-64
2022/01/14 19:22:33;;;;;;;24.13;13.63;;;;;;;;;;10409471;28;20192;-64
2022/01/14 19:27:35;;;;;;;25.70;14.85;;;;;;;;;;10406486;28;20222;-64
2022/01/14 19:32:36;;;;;;;26.50;14.85;;;;;;;;;;10411139;28;20214;-63
2022/01/14 19:37:37;;;;;;;26.27;15.00;;;;;;;;;;10408452;28;20949;-62
2022/01/14 19:42:38;;;;;;;23.88;13.90;;;;;;;;;;10404964;28;20269;-63
2022/01/14 19:47:40;;;;;;;23.85;14.55;;;;;;;;;;10409669;28;20226;-63
2022/01/14 19:52:41;;;;;;;24.05;14.30;;;;;;;;;;10452705;28;21714;-64
2022/01/14 19:57:42;;;;;;;21.40;13.90;;;;;;;;;;10435220;28;20214;-64
2022/01/14 20:02:45;;;;;;;24.58;13.68;;;;;;;;;;10448632;28;20210;-64
2022/01/14 20:07:46;;;;;;;20.95;12.90;;;;;;;;;;10449930;28;20228;-65
2022/01/14 20:12:47;;;;;;;20.08;11.88;;;;;;;;;;10445721;28;20206;-66
2022/01/14 20:17:49;;;;;;;17.70;10.10;;;;;;;;;;10449170;28;20228;-65
2022/01/14 20:22:50;;;;;;;19.10;11.35;;;;;;;;;;10450567;28;20187;-63
2022/01/14 20:27:51;;;;;;;20.20;9.90;;;;;;;;;;10454037;28;20272;-64
2022/01/14 20:32:53;;;;;;;16.20;10.70;;;;;;;;;;10435231;28;20214;-65
2022/01/14 20:37:54;;;;;;;22.38;9.57;;;;;;;;;;10457690;28;20218;-64
2022/01/14 20:42:59;;;;;;;25.90;8.88;;;;;;;;;;10457439;28;20183;-64
2022/01/14 20:48:02;;;;;;;20.30;7.10;;;;;;;;;;10457562;28;20621;-64
2022/01/14 20:53:05;;;;;;;17.75;7.40;;;;;;;;;;10456914;28;20210;-64
2022/01/14 20:58:07;;;;;;;24.33;7.32;;;;;;;;;;10451795;28;20225;-65
2022/01/14 21:03:08;;;;;;;15.10;5.95;;;;;;;;;;10453641;28;20688;-64
2022/01/14 21:08:09;;;;;;;17.10;6.55;;;;;;;;;;10455719;28;20327;-65
2022/01/14 21:13:10;;;;;;;17.33;6.10;;;;;;;;;;10455517;28;20233;-63
2022/01/14 21:18:12;;;;;;;12.35;5.22;;;;;;;;;;10458351;28;20701;-66
2022/01/14 21:23:13;;;;;;;8.93;4.60;;;;;;;;;;10451533;28;20194;-65
2022/01/14 21:28:15;;;;;;;18.58;6.25;;;;;;;;;;10454256;28;20209;-65
2022/01/14 21:33:16;;;;;;;13.23;6.78;;;;;;;;;;10454329;28;20229;-66
2022/01/14 21:38:17;;;;;;;20.73;7.70;;;;;;;;;;10450589;28;20250;-65
2022/01/14 21:43:20;;;;;;;13.35;6.40;;;;;;;;;;10442131;28;20658;-65
2022/01/14 21:48:22;;;;;;;22.92;8.88;;;;;;;;;;10455525;28;20697;-66
2022/01/14 21:53:23;;;;;;;12.68;6.30;;;;;;;;;;10457624;28;20207;-65
2022/01/14 21:58:26;;;;;;;16.88;6.78;;;;;;;;;;10453500;28;20225;-65
2022/01/14 22:03:28;;;;;;;17.00;4.47;;;;;;;;;;10455270;28;20211;-66
2022/01/14 22:08:30;;;;;;;13.82;4.93;;;;;;;;;;10457006;28;20226;-65
2022/01/14 22:13:37;;;;;;;15.50;4.15;;;;;;;;;;10453339;28;20197;-65
2022/01/14 22:18:38;;;;;;;19.50;4.93;;;;;;;;;;10458329;28;20910;-65
2022/01/14 22:23:40;;;;;;;15.57;4.63;;;;;;;;;;10457119;28;20201;-65
2022/01/14 22:28:41;;;;;;;15.23;4.32;;;;;;;;;;10453941;28;20198;-66
2022/01/14 22:33:42;;;;;;;12.30;4.60;;;;;;;;;;10456788;28;20689;-65
2022/01/14 22:38:43;;;;;;;16.77;4.05;;;;;;;;;;10454376;28;20210;-66
2022/01/14 22:43:44;;;;;;;14.88;3.72;;;;;;;;;;10450161;28;20281;-66
2022/01/14 22:48:45;;;;;;;13.18;3.28;;;;;;;;;;10448998;28;20233;-65
2022/01/14 22:53:46;;;;;;;22.00;3.17;;;;;;;;;;10448803;28;20197;-66
2022/01/14 22:58:47;;;;;;;24.90;3.13;;;;;;;;;;10452126;28;20206;-66
2022/01/14 23:03:48;;;;;;;11.45;2.83;;;;;;;;;;10454267;28;20583;-66
2022/01/14 23:08:51;;;;;;;20.10;3.10;;;;;;;;;;10453157;28;20201;-65
2022/01/14 23:13:52;;;;;;;12.55;2.58;;;;;;;;;;10453253;28;20205;-65
2022/01/14 23:18:53;;;;;;;17.55;3.40;;;;;;;;;;10449394;28;20218;-66
2022/01/14 23:23:55;;;;;;;21.73;2.65;;;;;;;;;;10450573;28;21102;-66
2022/01/14 23:28:56;;;;;;;12.52;2.63;;;;;;;;;;10452308;28;20195;-65
2022/01/14 23:33:59;;;;;;;15.40;3.05;;;;;;;;;;10453961;28;20214;-66
2022/01/14 23:39:00;;;;;;;19.75;3.38;;;;;;;;;;10451086;28;20246;-66
2022/01/14 23:44:13;;;;;;;19.35;3.50;;;;;;;;;;10451168;28;20207;-66
2022/01/14 23:49:14;;;;;;;14.35;2.45;;;;;;;;;;10453564;28;20250;-66
2022/01/14 23:54:16;;;;;;;21.30;3.15;;;;;;;;;;10456017;28;20201;-66
2022/01/14 23:59:18;;;;;;;21.05;3.25;;;;;;;;;;10447566;28;20203;-66
